< < Back
Terminal Aerodrome Forecast


Current Version              Previous Versions:   1  2  3  4  5  6  7  8  9  

Terminal Aerodrome Forecast

134
FTUS42 KFFC 181600 AAB
TAFMCN
TAF AMD
KMCN 181609Z 1816/1912 05014G24KT 3SM SHRA BR OVC008
     FM190200 03018G28KT 2SM SHRA BR OVC008=

Latest METAR

558
SAUS80 KWBC 182300 RRA
MTRMCN
METAR KMCN 182253Z 05014KT 2SM -RA BR OVC009 12/11 A3005 RMK AO2 SLP174
P0006 T01170111


USA.gov is the U.S. government's official web portal to all federal, state and local government web resources and services.